Shizuoka, Japan
Current Conditions -  °F | °C
As of 8:00 PM on Monday 22 Dec 2014 (Local Time) from RJNS Reporting Station
Few Clouds Few Clouds  
Wind Chill: 28°   Ceiling: Unl
Heat Index: 37°   Visibility: 6mi
Dew Point: 19°   Wind: 17mph
Humidity: 48%   Direction: 260°W
Pressure: 29.94"   Gusts: NA
Location:  34.98°N, 138.39°E
Report Text: RJNS 221100Z 26015KT 9999 FEW030 03/M07 Q1014
Loading
Personal Weather Stations






























Interactive Weather Map New forecast layout! Learn more

10-Day Weather Forecast

Advertisements
Track Severe Weather on mobile